createdAt,value
2023-01-15T00:00:01.915Z,8.02
2023-01-15T00:02:51.825Z,8.01
2023-01-15T00:05:39.291Z,7.99
2023-01-15T00:08:25.679Z,8.06
2023-01-15T00:11:14.066Z,8.16
2023-01-15T00:14:00.699Z,8.11
2023-01-15T00:16:47.408Z,8.16
2023-01-15T00:19:34.229Z,8.20
2023-01-15T00:22:21.154Z,8.19
2023-01-15T00:25:26.271Z,8.16
2023-01-15T00:28:15.476Z,8.25
2023-01-15T00:31:05.630Z,8.29
2023-01-15T00:33:52.579Z,7.63
2023-01-15T00:36:40.356Z,8.36
2023-01-15T00:39:27.640Z,8.35
2023-01-15T00:42:14.739Z,8.27
2023-01-15T00:45:09.920Z,8.28
2023-01-15T00:47:58.899Z,8.42
2023-01-15T00:50:49.199Z,8.40
2023-01-15T00:53:37.680Z,8.45
2023-01-15T00:56:32.656Z,8.46
2023-01-15T00:59:19.377Z,8.47
2023-01-15T01:02:07.622Z,8.50
2023-01-15T01:04:54.791Z,8.47
2023-01-15T01:07:41.857Z,8.62
2023-01-15T01:10:29.274Z,8.58
2023-01-15T01:13:16.812Z,8.60
2023-01-15T01:16:04.947Z,8.54
2023-01-15T01:18:53.493Z,8.61
2023-01-15T01:21:42.378Z,8.61
2023-01-15T01:24:29.124Z,8.63
2023-01-15T01:27:17.196Z,8.69
2023-01-15T01:30:04.145Z,8.73
2023-01-15T01:32:53.227Z,8.72
2023-01-15T01:35:41.310Z,8.76
2023-01-15T01:38:28.129Z,8.77
2023-01-15T01:41:15.037Z,8.83
2023-01-15T01:44:03.724Z,8.80
2023-01-15T01:46:50.407Z,8.78
2023-01-15T01:49:38.559Z,8.85
2023-01-15T01:52:32.668Z,8.84
2023-01-15T01:55:22.943Z,8.85
2023-01-15T01:58:12.733Z,8.87
2023-01-15T02:01:07.390Z,8.85
2023-01-15T02:03:56.046Z,8.88
2023-01-15T02:06:45.959Z,8.91
2023-01-15T02:09:35.757Z,8.89
2023-01-15T02:12:30.732Z,8.94
2023-01-15T02:15:24.384Z,8.96
2023-01-15T02:18:19.211Z,8.97
2023-01-15T02:21:16.685Z,8.92
2023-01-15T02:24:13.032Z,8.82
2023-01-15T02:27:11.045Z,8.72
2023-01-15T02:30:06.141Z,8.85
2023-01-15T02:33:08.939Z,8.78
2023-01-15T02:36:01.417Z,8.80
2023-01-15T02:38:57.043Z,8.86
2023-01-15T02:41:51.945Z,8.82
2023-01-15T02:44:45.520Z,8.73
2023-01-15T02:47:37.628Z,8.58
2023-01-15T02:50:28.944Z,8.75
2023-01-15T02:53:20.555Z,8.71
2023-01-15T02:56:11.044Z,8.69
2023-01-15T02:59:08.746Z,8.67
2023-01-15T03:02:01.814Z,8.70
2023-01-15T03:04:54.108Z,8.72
2023-01-15T03:07:47.535Z,8.62
2023-01-15T03:10:43.556Z,8.67
2023-01-15T03:13:38.818Z,8.66
2023-01-15T03:16:39.265Z,8.69
2023-01-15T03:19:32.582Z,8.70
2023-01-15T03:22:29.317Z,8.66
2023-01-15T03:25:20.309Z,8.75
2023-01-15T03:28:12.944Z,8.76
2023-01-15T03:31:00.757Z,8.72
2023-01-15T03:33:48.851Z,8.69
2023-01-15T03:36:40.887Z,8.71
2023-01-15T03:39:27.747Z,8.71
2023-01-15T03:42:49.030Z,8.71
2023-01-15T03:45:39.209Z,8.71
2023-01-15T03:48:32.449Z,8.73
2023-01-15T03:51:29.089Z,8.78
2023-01-15T03:54:23.252Z,8.72
2023-01-15T03:57:20.269Z,8.79
2023-01-15T04:00:14.646Z,8.83
2023-01-15T04:03:09.908Z,8.72
2023-01-15T04:06:00.512Z,8.59
2023-01-15T04:08:49.024Z,8.20
2023-01-15T04:11:39.126Z,8.08
2023-01-15T04:14:28.088Z,7.89
2023-01-15T04:17:14.975Z,7.77
2023-01-15T04:20:01.627Z,7.69
2023-01-15T04:22:50.010Z,7.66
2023-01-15T04:25:37.393Z,7.58
2023-01-15T04:28:25.608Z,7.52
2023-01-15T04:31:12.491Z,7.54
2023-01-15T04:33:59.262Z,7.55
2023-01-15T04:36:48.175Z,7.43
2023-01-15T04:39:35.117Z,7.39
2023-01-15T04:42:39.021Z,7.35
2023-01-15T04:45:27.250Z,7.22
2023-01-15T04:48:14.006Z,7.15
2023-01-15T04:51:04.449Z,7.04
2023-01-15T04:53:51.019Z,6.89
2023-01-15T04:56:41.029Z,6.79
2023-01-15T04:59:28.865Z,6.62
2023-01-15T05:02:16.867Z,6.47
2023-01-15T05:05:03.489Z,6.31
2023-01-15T05:07:50.302Z,6.12
2023-01-15T05:10:37.112Z,6.12
2023-01-15T05:13:23.832Z,6.06
2023-01-15T05:16:13.116Z,5.99
2023-01-15T05:19:02.760Z,5.93
2023-01-15T05:21:51.601Z,5.93
2023-01-15T05:24:38.052Z,6.05
2023-01-15T05:27:24.810Z,6.00
2023-01-15T05:30:14.458Z,5.82
2023-01-15T05:33:01.328Z,5.81
2023-01-15T05:35:49.408Z,5.63
2023-01-15T05:38:36.502Z,5.70
2023-01-15T05:41:42.460Z,5.63
2023-01-15T05:44:31.013Z,5.53
2023-01-15T05:47:17.583Z,5.48
2023-01-15T05:50:04.431Z,5.36
2023-01-15T05:52:52.511Z,5.46
2023-01-15T05:55:39.203Z,5.45
2023-01-15T05:58:25.927Z,5.56
2023-01-15T06:01:13.217Z,5.53
2023-01-15T06:04:00.766Z,5.55
2023-01-15T06:06:47.935Z,5.42
2023-01-15T06:09:36.279Z,5.39
2023-01-15T06:12:22.690Z,5.35
2023-01-15T06:15:10.660Z,5.34
2023-01-15T06:17:57.223Z,5.49
2023-01-15T06:20:44.013Z,5.31
2023-01-15T06:23:30.872Z,5.45
2023-01-15T06:26:19.685Z,5.30
2023-01-15T06:29:06.307Z,5.23
2023-01-15T06:31:53.154Z,5.20
2023-01-15T06:34:43.341Z,5.25
2023-01-15T06:37:29.911Z,5.24
2023-01-15T06:40:16.874Z,5.47
2023-01-15T06:43:22.036Z,5.36
2023-01-15T06:46:39.014Z,5.32
2023-01-15T06:49:25.488Z,5.30
2023-01-15T06:52:12.437Z,5.35
2023-01-15T06:54:59.259Z,5.25
2023-01-15T06:57:46.519Z,5.24
2023-01-15T07:00:34.777Z,5.37
2023-01-15T07:03:21.486Z,5.35
2023-01-15T07:06:09.305Z,5.43
2023-01-15T07:08:56.057Z,5.41
2023-01-15T07:11:50.386Z,5.34
2023-01-15T07:14:37.255Z,5.28
2023-01-15T07:17:25.432Z,5.42
2023-01-15T07:20:13.498Z,5.35
2023-01-15T07:23:00.012Z,5.35
2023-01-15T07:25:46.732Z,5.44
2023-01-15T07:28:33.449Z,5.33
2023-01-15T07:31:20.475Z,5.35
2023-01-15T07:34:08.445Z,5.20
2023-01-15T07:36:55.411Z,5.43
2023-01-15T07:39:42.180Z,5.39
2023-01-15T07:42:46.351Z,5.26
2023-01-15T07:45:50.673Z,5.36
2023-01-15T07:48:54.958Z,5.31
2023-01-15T07:51:42.954Z,5.42
2023-01-15T07:54:30.008Z,5.48
2023-01-15T07:57:20.211Z,5.44
2023-01-15T08:00:09.263Z,5.42
2023-01-15T08:02:58.702Z,5.36
2023-01-15T08:05:45.462Z,5.35
2023-01-15T08:08:33.552Z,5.43
2023-01-15T08:11:37.743Z,5.25
2023-01-15T08:14:42.003Z,5.35
2023-01-15T08:17:28.688Z,5.37
2023-01-15T08:20:17.332Z,5.38
2023-01-15T08:23:04.334Z,5.36
2023-01-15T08:25:52.372Z,5.47
2023-01-15T08:28:39.035Z,5.50
2023-01-15T08:31:25.916Z,5.46
2023-01-15T08:34:12.941Z,5.43
2023-01-15T08:37:00.437Z,5.59
2023-01-15T08:39:47.229Z,5.56
2023-01-15T08:42:35.789Z,5.67
2023-01-15T08:45:22.472Z,5.71
2023-01-15T08:48:09.280Z,5.71
2023-01-15T08:50:56.194Z,5.75
2023-01-15T08:53:42.841Z,5.75
2023-01-15T08:56:29.380Z,5.76
2023-01-15T08:59:18.140Z,5.74
2023-01-15T09:02:05.196Z,5.75
2023-01-15T09:04:52.731Z,5.80
2023-01-15T09:07:39.424Z,5.87
2023-01-15T09:10:26.512Z,5.93
2023-01-15T09:13:12.885Z,5.89
2023-01-15T09:16:03.300Z,5.97
2023-01-15T09:18:50.447Z,6.00
2023-01-15T09:21:37.056Z,6.02
2023-01-15T09:24:25.164Z,6.06
2023-01-15T09:27:12.465Z,5.98
2023-01-15T09:29:59.081Z,6.03
2023-01-15T09:32:47.483Z,6.20
2023-01-15T09:35:33.986Z,6.21
2023-01-15T09:38:22.952Z,6.21
2023-01-15T09:41:33.461Z,6.25
2023-01-15T09:44:35.769Z,6.37
2023-01-15T09:47:27.594Z,6.32
2023-01-15T09:50:26.080Z,6.34
2023-01-15T09:53:34.774Z,6.37
2023-01-15T09:56:24.661Z,6.38
2023-01-15T09:59:21.685Z,6.39
2023-01-15T10:02:21.111Z,6.48
2023-01-15T10:05:13.346Z,6.52
2023-01-15T10:08:07.541Z,6.53
2023-01-15T10:10:58.423Z,6.37
2023-01-15T10:13:48.086Z,6.64
2023-01-15T10:16:34.892Z,6.53
2023-01-15T10:19:21.571Z,6.53
2023-01-15T10:22:13.757Z,6.57
2023-01-15T10:25:07.212Z,6.58
2023-01-15T10:27:53.802Z,6.58
2023-01-15T10:30:45.189Z,6.62
2023-01-15T10:33:49.588Z,6.74
2023-01-15T10:36:43.342Z,6.74
2023-01-15T10:39:38.727Z,6.72
2023-01-15T10:42:40.789Z,6.75
2023-01-15T10:45:32.027Z,6.80
2023-01-15T10:48:27.167Z,6.95
2023-01-15T10:51:17.432Z,6.99
2023-01-15T10:54:08.687Z,7.00
2023-01-15T10:57:02.212Z,6.96
2023-01-15T10:59:57.637Z,6.87
2023-01-15T11:02:46.396Z,6.86
2023-01-15T11:05:34.321Z,6.89
2023-01-15T11:09:07.788Z,6.98
2023-01-15T11:12:02.570Z,6.98
2023-01-15T11:15:08.973Z,7.04
2023-01-15T11:18:14.054Z,7.10
2023-01-15T11:21:02.108Z,7.17
2023-01-15T11:23:49.563Z,7.16
2023-01-15T11:26:36.540Z,7.05
2023-01-15T11:29:32.676Z,7.04
2023-01-15T11:32:30.349Z,7.03
2023-01-15T11:35:20.219Z,7.11
2023-01-15T11:38:08.933Z,7.02
2023-01-15T11:40:59.272Z,6.63
2023-01-15T11:44:13.607Z,7.01
2023-01-15T11:47:20.504Z,7.01
2023-01-15T11:50:35.650Z,7.01
2023-01-15T11:53:25.320Z,7.11
2023-01-15T11:56:14.799Z,7.08
2023-01-15T11:59:10.562Z,7.11
2023-01-15T12:02:00.965Z,7.15
2023-01-15T12:04:54.421Z,7.13
2023-01-15T12:07:42.549Z,7.05
2023-01-15T12:10:49.055Z,7.07
2023-01-15T12:13:44.714Z,7.12
2023-01-15T12:16:40.674Z,7.15
2023-01-15T12:19:35.722Z,7.06
2023-01-15T12:22:41.002Z,7.12
2023-01-15T12:25:39.891Z,7.10
2023-01-15T12:28:30.411Z,7.08
2023-01-15T12:31:24.087Z,7.17
2023-01-15T12:34:21.688Z,7.12
2023-01-15T12:37:16.241Z,7.05
2023-01-15T12:40:18.685Z,7.11
2023-01-15T12:43:34.632Z,7.09
2023-01-15T12:46:29.063Z,7.08
2023-01-15T12:49:27.217Z,7.12
2023-01-15T12:52:20.842Z,7.25
2023-01-15T12:55:15.611Z,7.23
2023-01-15T12:58:06.283Z,7.22
2023-01-15T13:01:04.197Z,7.18
2023-01-15T13:04:01.674Z,7.08
2023-01-15T13:06:54.058Z,7.09
2023-01-15T13:09:48.263Z,6.92
2023-01-15T13:12:36.017Z,6.98
2023-01-15T13:15:28.841Z,6.98
2023-01-15T13:18:24.923Z,7.01
2023-01-15T13:21:14.840Z,7.05
2023-01-15T13:24:24.386Z,7.10
2023-01-15T13:27:27.384Z,7.11
2023-01-15T13:30:32.438Z,7.09
2023-01-15T13:33:27.841Z,7.00
2023-01-15T13:36:19.879Z,6.95
2023-01-15T13:39:08.964Z,6.79
2023-01-15T13:42:13.993Z,6.86
2023-01-15T13:45:03.917Z,6.76
2023-01-15T13:47:53.827Z,6.75
2023-01-15T13:50:52.157Z,6.72
2023-01-15T13:53:41.174Z,6.61
2023-01-15T13:56:29.613Z,6.54
2023-01-15T13:59:41.011Z,6.47
2023-01-15T14:02:30.166Z,6.46
2023-01-15T14:05:29.948Z,6.50
2023-01-15T14:08:18.366Z,6.61
2023-01-15T14:11:05.140Z,6.64
2023-01-15T14:14:17.757Z,6.71
2023-01-15T14:17:23.318Z,6.73
2023-01-15T14:20:34.073Z,6.81
2023-01-15T14:23:41.815Z,6.80
2023-01-15T14:26:38.167Z,6.71
2023-01-15T14:29:58.188Z,6.71
2023-01-15T14:33:00.131Z,6.69
2023-01-15T14:35:49.176Z,6.42
2023-01-15T14:38:38.028Z,6.75
2023-01-15T14:41:29.135Z,6.68
2023-01-15T14:44:15.986Z,6.73
2023-01-15T14:47:08.199Z,6.68
2023-01-15T14:50:03.375Z,6.65
2023-01-15T14:52:51.581Z,6.59
2023-01-15T14:55:48.730Z,6.41
2023-01-15T14:58:48.850Z,6.48
2023-01-15T15:01:44.413Z,6.48
2023-01-15T15:04:38.067Z,6.50
2023-01-15T15:07:28.436Z,6.52
2023-01-15T15:10:25.148Z,6.50
2023-01-15T15:13:22.549Z,6.54
2023-01-15T15:16:14.580Z,6.51
2023-01-15T15:19:12.718Z,6.38
2023-01-15T15:22:05.212Z,6.44
2023-01-15T15:24:55.023Z,6.44
2023-01-15T15:27:41.552Z,6.28
2023-01-15T15:30:33.259Z,6.22
2023-01-15T15:33:23.072Z,6.02
2023-01-15T15:36:10.524Z,6.11
2023-01-15T15:38:59.705Z,6.07
2023-01-15T15:42:08.232Z,6.00
2023-01-15T15:45:17.773Z,5.66
2023-01-15T15:48:32.918Z,5.89
2023-01-15T15:51:32.265Z,5.81
2023-01-15T15:54:21.269Z,5.75
2023-01-15T15:57:13.725Z,5.70
2023-01-15T16:00:01.631Z,5.71
2023-01-15T16:02:50.842Z,5.79
2023-01-15T16:05:40.222Z,5.62
2023-01-15T16:08:28.024Z,5.43
2023-01-15T16:11:15.390Z,5.64
2023-01-15T16:14:08.111Z,5.69
2023-01-15T16:16:55.778Z,4.82
2023-01-15T16:19:44.021Z,5.54
2023-01-15T16:22:31.916Z,5.51
2023-01-15T16:25:27.526Z,5.54
2023-01-15T16:28:25.075Z,5.44
2023-01-15T16:31:13.470Z,5.50
2023-01-15T16:34:01.080Z,5.43
2023-01-15T16:36:47.975Z,5.31
2023-01-15T16:39:41.253Z,5.25
2023-01-15T16:42:31.648Z,5.24
2023-01-15T16:45:24.860Z,5.29
2023-01-15T16:48:25.829Z,5.28
2023-01-15T16:51:31.351Z,5.37
2023-01-15T16:54:48.130Z,5.26
2023-01-15T16:57:35.454Z,5.20
2023-01-15T17:00:30.780Z,5.14
2023-01-15T17:03:20.226Z,5.03
2023-01-15T17:06:16.224Z,5.12
2023-01-15T17:09:04.360Z,5.12
2023-01-15T17:11:53.969Z,5.07
2023-01-15T17:14:40.748Z,5.05
2023-01-15T17:17:30.113Z,5.13
2023-01-15T17:20:19.142Z,4.71
2023-01-15T17:23:13.985Z,4.98
2023-01-15T17:26:00.843Z,5.12
2023-01-15T17:28:49.575Z,5.03
2023-01-15T17:31:36.624Z,4.86
2023-01-15T17:34:25.275Z,5.03
2023-01-15T17:37:12.139Z,5.01
2023-01-15T17:39:58.923Z,5.02
2023-01-15T17:42:45.959Z,4.94
2023-01-15T17:45:34.932Z,4.93
2023-01-15T17:48:21.668Z,5.05
2023-01-15T17:51:13.388Z,5.08
2023-01-15T17:54:00.177Z,5.09
2023-01-15T17:57:04.358Z,5.11
2023-01-15T18:00:08.504Z,5.24
2023-01-15T18:03:18.458Z,5.23
2023-01-15T18:06:05.906Z,5.22
2023-01-15T18:08:56.856Z,5.20
2023-01-15T18:11:44.221Z,5.16
2023-01-15T18:14:32.052Z,5.23
2023-01-15T18:17:20.393Z,5.17
2023-01-15T18:20:09.834Z,5.11
2023-01-15T18:22:56.442Z,5.21
2023-01-15T18:25:46.331Z,5.13
2023-01-15T18:28:34.419Z,5.08
2023-01-15T18:31:21.012Z,5.08
2023-01-15T18:34:08.083Z,5.01
2023-01-15T18:36:57.147Z,5.14
2023-01-15T18:39:43.853Z,5.14
2023-01-15T18:42:48.079Z,5.11
2023-01-15T18:45:52.191Z,5.14
2023-01-15T18:48:38.934Z,5.15
2023-01-15T18:51:25.638Z,5.16
2023-01-15T18:54:14.027Z,5.19
2023-01-15T18:57:00.516Z,5.06
2023-01-15T18:59:48.030Z,5.14
2023-01-15T19:02:34.967Z,5.11
2023-01-15T19:05:21.437Z,5.14
2023-01-15T19:08:09.279Z,5.17
2023-01-15T19:10:57.469Z,5.23
2023-01-15T19:14:04.242Z,5.26
2023-01-15T19:17:08.335Z,5.15
2023-01-15T19:19:56.861Z,5.20
2023-01-15T19:23:05.777Z,4.89
2023-01-15T19:25:53.031Z,5.20
2023-01-15T19:28:41.563Z,5.27
2023-01-15T19:31:38.629Z,5.16
2023-01-15T19:34:34.228Z,5.24
2023-01-15T19:37:22.258Z,5.20
2023-01-15T19:40:13.626Z,5.26
2023-01-15T19:43:17.315Z,5.26
2023-01-15T19:46:26.167Z,5.41
2023-01-15T19:49:37.241Z,5.26
2023-01-15T19:52:36.070Z,5.47
2023-01-15T19:55:24.636Z,5.41
2023-01-15T19:58:13.192Z,5.47
2023-01-15T20:00:59.802Z,5.55
2023-01-15T20:03:48.068Z,5.49
2023-01-15T20:06:34.835Z,5.63
2023-01-15T20:09:21.706Z,5.67
2023-01-15T20:12:25.998Z,5.72
2023-01-15T20:15:12.795Z,5.71
2023-01-15T20:18:00.134Z,5.70
2023-01-15T20:20:50.037Z,5.66
2023-01-15T20:23:37.507Z,5.65
2023-01-15T20:26:26.476Z,5.74
2023-01-15T20:29:13.288Z,5.71
2023-01-15T20:32:00.058Z,5.70
2023-01-15T20:34:47.444Z,5.81
2023-01-15T20:37:35.352Z,5.69
2023-01-15T20:40:23.534Z,5.73
2023-01-15T20:43:28.998Z,5.75
2023-01-15T20:46:15.958Z,5.58
2023-01-15T20:49:16.637Z,5.49
2023-01-15T20:52:03.280Z,5.56
2023-01-15T20:54:54.801Z,5.46
2023-01-15T20:57:42.618Z,5.45
2023-01-15T21:00:29.302Z,5.44
2023-01-15T21:03:15.855Z,5.42
2023-01-15T21:06:04.732Z,5.44
2023-01-15T21:08:55.490Z,5.42
2023-01-15T21:11:46.947Z,5.22
2023-01-15T21:14:37.382Z,5.27
2023-01-15T21:17:24.963Z,5.30
2023-01-15T21:20:14.102Z,5.29
2023-01-15T21:23:00.700Z,5.20
2023-01-15T21:25:47.519Z,5.18
2023-01-15T21:28:35.547Z,5.09
2023-01-15T21:31:23.143Z,5.20
2023-01-15T21:34:10.019Z,5.09
2023-01-15T21:36:56.733Z,5.21
2023-01-15T21:39:43.417Z,5.23
2023-01-15T21:42:47.601Z,5.23
2023-01-15T21:45:36.621Z,5.21
2023-01-15T21:48:22.956Z,5.17
2023-01-15T21:51:10.198Z,5.16
2023-01-15T21:54:00.088Z,5.18
2023-01-15T21:56:48.007Z,5.21
2023-01-15T21:59:35.468Z,5.23
2023-01-15T22:02:24.239Z,5.16
2023-01-15T22:05:11.882Z,5.15
2023-01-15T22:07:59.086Z,5.11
2023-01-15T22:10:46.424Z,5.05
2023-01-15T22:13:34.870Z,5.08
2023-01-15T22:16:22.183Z,5.04
2023-01-15T22:19:11.751Z,4.86
2023-01-15T22:22:01.934Z,4.83
2023-01-15T22:24:49.212Z,4.70
2023-01-15T22:27:41.000Z,4.66
2023-01-15T22:30:28.529Z,4.68
2023-01-15T22:33:15.883Z,4.66
2023-01-15T22:36:04.685Z,4.67
2023-01-15T22:38:54.695Z,4.63
2023-01-15T22:41:59.369Z,4.63
2023-01-15T22:44:46.380Z,4.60
2023-01-15T22:47:33.558Z,4.56
2023-01-15T22:50:20.956Z,4.56
2023-01-15T22:53:09.729Z,4.55
2023-01-15T22:55:58.000Z,4.58
2023-01-15T22:58:45.425Z,4.54
2023-01-15T23:01:32.761Z,4.63
2023-01-15T23:04:22.377Z,4.70
2023-01-15T23:07:10.162Z,4.77
2023-01-15T23:09:58.978Z,4.80
2023-01-15T23:12:45.581Z,4.87
2023-01-15T23:15:32.316Z,4.92
2023-01-15T23:18:19.306Z,5.07
2023-01-15T23:21:06.932Z,5.14
2023-01-15T23:23:57.622Z,5.20
2023-01-15T23:26:46.380Z,5.21
2023-01-15T23:29:33.916Z,5.30
2023-01-15T23:32:20.417Z,5.30
2023-01-15T23:35:08.212Z,5.22
2023-01-15T23:37:55.086Z,5.28
2023-01-15T23:40:42.455Z,5.21
2023-01-15T23:43:47.922Z,5.21
2023-01-15T23:46:35.442Z,5.23
2023-01-15T23:49:22.982Z,5.14
2023-01-15T23:52:09.809Z,5.18
2023-01-15T23:54:56.495Z,5.08
2023-01-15T23:57:44.939Z,5.17
